Time;durP1;ratioP1;P1;durP2;ratioP2;P2;SDS_P1;SDS_P2;PMS_P1;PMS_P2;Temp;Humidity;BMP_temperature;BMP_pressure;BME280_temperature;BME280_humidity;BME280_pressure;Samples;Min_cycle;Max_cycle;Signal;HPM_P1;HPM_P2
2022/08/15 00:03:00;;;;;;;8.82;7.97;;;;;;;24.05;46.20;99274.94;10363133;28;20053;-78
2022/08/15 00:08:13;;;;;;;8.32;7.30;;;;;;;24.15;45.89;99268.84;10350592;28;20107;-77
2022/08/15 00:13:39;;;;;;;8.60;7.70;;;;;;;24.02;46.19;99272.66;10346657;28;20050;-77
2022/08/15 00:18:44;;;;;;;8.60;7.70;;;;;;;23.94;46.87;99264.78;10362740;28;20408;-75
2022/08/15 00:23:48;;;;;;;9.25;8.27;;;;;;;23.88;46.96;99263.84;10355815;28;20046;-78
2022/08/15 00:28:54;;;;;;;9.45;8.55;;;;;;;23.77;47.20;99266.59;10362380;28;20041;-77
2022/08/15 00:34:00;;;;;;;9.30;8.27;;;;;;;23.82;47.26;99259.31;10353860;28;20426;-77
2022/08/15 00:39:06;;;;;;;8.80;7.88;;;;;;;23.84;47.24;99251.69;10349949;28;20049;-78
2022/08/15 00:44:16;;;;;;;9.30;7.50;;;;;;;23.77;47.30;99269.34;10346671;28;20145;-78
2022/08/15 00:49:20;;;;;;;8.52;7.82;;;;;;;23.87;46.99;99270.41;10350336;28;20061;-76
2022/08/15 00:54:28;;;;;;;9.18;8.15;;;;;;;23.77;47.54;99267.41;10352676;28;20061;-77
2022/08/15 00:59:59;;;;;;;8.95;8.18;;;;;;;23.85;46.89;99268.97;10347775;28;20074;-78
2022/08/15 01:05:05;;;;;;;8.30;7.47;;;;;;;23.65;47.36;99267.38;10347970;28;20050;-76
2022/08/15 01:10:17;;;;;;;8.82;7.93;;;;;;;23.82;47.15;99266.72;10346151;28;20070;-78
2022/08/15 01:15:29;;;;;;;9.30;8.02;;;;;;;23.83;47.24;99251.91;10353692;28;20132;-78
2022/08/15 01:20:46;;;;;;;10.73;8.82;;;;;;;23.89;46.94;99259.22;10364011;28;20415;-76
2022/08/15 01:25:58;;;;;;;8.23;7.43;;;;;;;23.86;46.52;99257.78;10353090;28;20095;-77
2022/08/15 01:31:24;;;;;;;7.75;7.05;;;;;;;24.02;46.34;99247.16;10363068;28;20089;-78
2022/08/15 01:36:30;;;;;;;7.70;7.10;;;;;;;23.97;46.38;99255.25;10365237;28;20046;-77
2022/08/15 01:41:44;;;;;;;9.05;8.25;;;;;;;24.02;46.22;99253.47;10355248;28;20042;-75
2022/08/15 01:47:03;;;;;;;7.80;7.18;;;;;;;24.05;46.56;99253.00;10360552;28;20046;-78
2022/08/15 01:52:16;;;;;;;8.90;8.10;;;;;;;24.05;46.45;99243.91;10379721;28;20057;-76
2022/08/15 01:57:41;;;;;;;9.18;7.82;;;;;;;24.04;46.48;99250.50;10374693;28;20044;-77
2022/08/15 02:02:44;;;;;;;8.48;7.65;;;;;;;23.97;46.92;99242.41;10353188;28;20048;-78
2022/08/15 02:07:49;;;;;;;9.85;8.05;;;;;;;24.00;47.16;99228.22;10361098;28;20050;-78
2022/08/15 02:13:15;;;;;;;9.55;8.57;;;;;;;24.00;47.75;99216.41;10367895;28;20054;-76
2022/08/15 02:18:27;;;;;;;8.80;7.93;;;;;;;23.92;49.24;99209.38;10363100;28;20056;-78
2022/08/15 02:23:31;;;;;;;8.18;7.43;;;;;;;23.79;48.57;99212.38;10358069;28;20125;-78
2022/08/15 02:28:41;;;;;;;9.18;8.27;;;;;;;23.74;48.61;99204.00;10346565;28;20073;-76
2022/08/15 02:33:50;;;;;;;9.23;8.43;;;;;;;23.76;48.95;99197.22;10372709;28;20093;-75
2022/08/15 02:38:58;;;;;;;9.68;7.80;;;;;;;23.74;48.35;99196.59;10360252;28;20042;-77
2022/08/15 02:44:03;;;;;;;11.05;8.00;;;;;;;23.70;48.85;99192.69;10361259;28;20057;-77
2022/08/15 02:49:11;;;;;;;9.55;8.55;;;;;;;23.58;48.82;99192.66;10355198;28;20050;-75
2022/08/15 02:54:17;;;;;;;8.98;8.15;;;;;;;23.56;48.99;99177.53;10395119;23;20421;-77
2022/08/15 02:59:45;;;;;;;9.00;8.10;;;;;;;23.50;49.53;99179.31;10368833;28;20401;-76
2022/08/15 03:04:55;;;;;;;9.32;8.43;;;;;;;23.20;50.24;99168.47;10345801;28;20056;-77
2022/08/15 03:10:00;;;;;;;9.32;8.30;;;;;;;23.20;50.44;99152.03;10351728;28;20570;-76
2022/08/15 03:15:14;;;;;;;9.65;8.75;;;;;;;23.28;50.51;99148.13;10342408;28;20478;-76
2022/08/15 03:20:19;;;;;;;10.32;8.65;;;;;;;23.31;50.07;99144.88;10365383;28;20165;-76
2022/08/15 03:25:39;;;;;;;10.80;9.00;;;;;;;23.25;50.69;99132.16;10345335;28;20077;-76
2022/08/15 03:31:02;;;;;;;11.15;8.88;;;;;;;23.15;51.11;99127.28;10338108;28;20459;-76
2022/08/15 03:36:07;;;;;;;10.38;9.35;;;;;;;22.99;51.62;99121.41;10327658;28;20050;-76
2022/08/15 03:41:16;;;;;;;11.60;10.52;;;;;;;23.03;51.53;99112.69;10323845;28;20487;-76
2022/08/15 03:46:23;;;;;;;9.98;8.75;;;;;;;22.99;51.79;99118.66;10323814;28;20405;-76
2022/08/15 03:51:28;;;;;;;11.82;9.65;;;;;;;22.96;51.95;99110.09;10330774;28;20050;-77
2022/08/15 03:56:36;;;;;;;9.43;8.55;;;;;;;22.92;52.06;99119.84;10339272;28;20455;-78
2022/08/15 04:01:45;;;;;;;8.90;7.95;;;;;;;22.87;52.55;99111.47;10350920;28;20065;-77
2022/08/15 04:06:50;;;;;;;9.85;8.95;;;;;;;22.90;52.68;99119.22;10353346;28;20047;-77
2022/08/15 04:12:05;;;;;;;9.93;8.30;;;;;;;22.86;52.73;99126.25;10348630;28;20586;-77
2022/08/15 04:17:28;;;;;;;8.40;7.70;;;;;;;22.83;52.80;99124.81;10370456;28;20117;-77
2022/08/15 04:22:51;;;;;;;8.30;7.60;;;;;;;22.89;53.12;99128.53;10342532;28;20057;-77
2022/08/15 04:28:03;;;;;;;8.68;7.80;;;;;;;22.93;53.33;99133.28;10321404;28;20050;-76
2022/08/15 04:33:30;;;;;;;8.02;7.22;;;;;;;22.92;53.30;99145.28;10355488;28;20121;-77
2022/08/15 04:38:57;;;;;;;8.13;7.32;;;;;;;22.90;53.72;99133.78;10350802;28;20061;-77
2022/08/15 04:44:06;;;;;;;9.30;7.38;;;;;;;23.00;53.17;99142.22;10329741;28;20495;-77
2022/08/15 04:49:23;;;;;;;9.02;7.03;;;;;;;23.06;53.47;99134.97;10334429;28;20046;-77
2022/08/15 04:54:28;;;;;;;10.27;6.90;;;;;;;23.10;53.06;99138.09;10339907;28;20058;-77
2022/08/15 04:59:51;;;;;;;7.78;7.05;;;;;;;22.83;53.74;99140.41;10330808;28;20128;-77
2022/08/15 05:05:44;;;;;;;7.55;6.78;;;;;;;22.52;54.72;99134.97;10335014;28;20057;-76
2022/08/15 05:10:55;;;;;;;7.20;6.60;;;;;;;22.53;54.90;99133.06;10339040;28;20046;-77
2022/08/15 05:16:00;;;;;;;8.15;7.43;;;;;;;22.55;55.22;99144.63;10354918;28;20475;-76
2022/08/15 05:21:11;;;;;;;9.95;8.45;;;;;;;22.65;54.38;99133.94;10329695;28;20054;-77
2022/08/15 05:26:18;;;;;;;7.75;6.95;;;;;;;22.36;55.21;99149.28;10335109;28;20089;-77
2022/08/15 05:31:42;;;;;;;7.88;7.18;;;;;;;22.52;54.36;99148.66;10321071;28;20054;-75
2022/08/15 05:36:49;;;;;;;8.07;7.38;;;;;;;22.95;52.90;99141.25;10322017;28;20050;-77
2022/08/15 05:42:05;;;;;;;8.27;7.45;;;;;;;23.17;52.68;99138.81;10342367;28;20065;-77
2022/08/15 05:47:27;;;;;;;7.43;6.72;;;;;;;23.31;52.55;99142.16;10358451;28;20052;-77
2022/08/15 05:52:46;;;;;;;7.90;7.10;;;;;;;23.44;52.76;99145.50;10325015;28;20051;-76
2022/08/15 05:58:03;;;;;;;7.80;7.07;;;;;;;23.45;52.77;99146.34;10360831;28;20384;-77
2022/08/15 06:03:28;;;;;;;9.57;7.72;;;;;;;23.33;53.19;99149.06;10336142;28;20100;-77
2022/08/15 06:08:49;;;;;;;11.93;8.90;;;;;;;23.37;53.30;99154.91;10345702;28;20742;-77
2022/08/15 06:14:26;;;;;;;10.43;8.18;;;;;;;23.14;54.37;99153.81;10346105;28;20041;-77
2022/08/15 06:19:43;;;;;;;8.43;7.68;;;;;;;22.99;55.79;99175.31;10350751;28;20041;-77
2022/08/15 06:24:59;;;;;;;11.02;8.57;;;;;;;23.08;55.18;99173.06;10337107;28;20141;-77
2022/08/15 06:30:09;;;;;;;8.68;7.68;;;;;;;23.58;53.15;99167.16;10323496;28;20055;-77
2022/08/15 06:35:28;;;;;;;10.23;9.23;;;;;;;23.91;52.28;99173.97;10340808;28;20054;-76
2022/08/15 06:40:42;;;;;;;10.68;8.52;;;;;;;24.17;51.44;99169.84;10340672;28;20042;-77
2022/08/15 06:45:50;;;;;;;8.98;7.63;;;;;;;24.05;49.72;99173.47;10369187;28;20046;-76
2022/08/15 06:50:56;;;;;;;7.95;7.22;;;;;;;24.16;49.00;99160.75;10386680;28;20510;-77
2022/08/15 06:56:03;;;;;;;8.90;7.05;;;;;;;24.26;48.48;99160.16;10388704;28;20477;-77
2022/08/15 07:01:22;;;;;;;11.40;7.80;;;;;;;24.76;47.45;99159.47;10365081;28;20041;-77
2022/08/15 07:06:35;;;;;;;9.57;7.72;;;;;;;25.11;46.63;99161.22;10361413;28;20125;-77
2022/08/15 07:11:51;;;;;;;9.40;8.50;;;;;;;25.48;45.56;99156.03;10355050;28;20399;-77
2022/08/15 07:17:06;;;;;;;11.15;7.93;;;;;;;25.70;45.42;99152.50;10346515;28;20058;-77
2022/08/15 07:22:11;;;;;;;11.23;8.45;;;;;;;25.84;44.80;99153.81;10341435;28;20037;-77
2022/08/15 07:27:18;;;;;;;9.48;7.65;;;;;;;26.10;44.10;99146.72;10367970;28;20056;-77
2022/08/15 07:32:29;;;;;;;8.23;7.43;;;;;;;26.58;43.15;99150.59;10371546;28;20041;-77
2022/08/15 07:37:38;;;;;;;;;;;;;;;26.67;43.28;99151.78;10370759;28;20070;-77
2022/08/15 07:42:45;;;;;;;16.83;7.57;;;;;;;26.96;41.84;99157.03;10364572;28;19937;-77
2022/08/15 07:48:06;;;;;;;8.82;7.93;;;;;;;26.99;42.13;99162.03;10371261;28;20065;-77
2022/08/15 07:53:17;;;;;;;8.32;7.35;;;;;;;27.37;41.56;99166.47;10364689;28;20045;-77
2022/08/15 07:58:24;;;;;;;10.90;7.90;;;;;;;26.98;41.33;99160.34;10342559;28;20050;-77
2022/08/15 08:03:40;;;;;;;10.57;6.68;;;;;;;26.59;42.00;99176.19;10350659;28;20069;-77
2022/08/15 08:08:58;;;;;;;7.38;6.60;;;;;;;26.74;42.14;99166.16;10346182;28;20144;-77
2022/08/15 08:14:14;;;;;;;7.10;5.88;;;;;;;26.69;41.67;99177.13;10350980;28;20107;-76
2022/08/15 08:19:51;;;;;;;6.38;5.35;;;;;;;26.00;42.19;99190.59;10349483;28;20049;-82
2022/08/15 08:25:02;;;;;;;10.20;6.00;;;;;;;26.52;41.59;99177.25;10342992;28;20050;-81
2022/08/15 08:30:23;;;;;;;8.13;6.30;;;;;;;26.76;41.10;99182.41;10374094;28;20049;-81
2022/08/15 08:35:52;;;;;;;10.23;5.68;;;;;;;26.88;40.92;99182.31;10372398;28;20558;-82
2022/08/15 08:46:48;;;;;;;6.10;5.60;;;;;;;27.28;38.66;99183.75;10370307;28;20050;-80
2022/08/15 08:52:02;;;;;;;8.52;5.28;;;;;;;27.65;38.14;99180.19;10350157;28;20055;-81
2022/08/15 08:57:15;;;;;;;9.50;5.75;;;;;;;27.87;37.89;99175.34;10383729;28;20080;-80
2022/08/15 09:02:27;;;;;;;6.30;5.20;;;;;;;29.02;36.69;99179.03;10391584;28;20046;-81
2022/08/15 09:07:38;;;;;;;5.50;5.00;;;;;;;29.24;37.39;99181.59;10393072;28;20045;-81
2022/08/15 09:18:20;;;;;;;8.82;6.00;;;;;;;28.24;38.11;99183.53;10351952;28;20042;-81
2022/08/15 09:23:36;;;;;;;10.05;5.90;;;;;;;27.98;38.52;99188.13;10359992;28;20152;-82
2022/08/15 09:28:44;;;;;;;8.52;6.18;;;;;;;28.46;37.79;99191.63;10362564;28;20042;-81
2022/08/15 09:34:14;;;;;;;7.95;7.18;;;;;;;28.89;37.21;99195.06;10368643;28;20100;-80
2022/08/15 09:39:54;;;;;;;7.47;6.57;;;;;;;28.87;37.34;99188.16;10374646;28;20104;-81
2022/08/15 09:45:15;;;;;;;11.05;6.90;;;;;;;29.62;35.89;99179.34;10372467;28;20334;-82
2022/08/15 09:50:36;;;;;;;10.02;5.68;;;;;;;30.24;35.53;99184.44;10375836;28;20110;-80
2022/08/15 09:55:46;;;;;;;7.15;5.93;;;;;;;30.56;34.02;99194.25;10372793;28;20477;-80
2022/08/15 10:01:07;;;;;;;8.55;6.25;;;;;;;30.19;34.47;99197.47;10357631;28;20077;-81
2022/08/15 10:06:14;;;;;;;9.38;6.50;;;;;;;30.17;34.58;99191.38;10382431;28;20042;-80
2022/08/15 10:11:59;;;;;;;6.97;6.20;;;;;;;29.81;35.37;99202.53;10375369;28;20041;-80
2022/08/15 10:17:22;;;;;;;10.57;6.15;;;;;;;28.86;36.14;99198.38;10371987;28;20076;-81
2022/08/15 10:22:52;;;;;;;8.73;6.15;;;;;;;28.58;37.59;99209.91;10388777;28;20068;-79
2022/08/15 10:27:58;;;;;;;8.32;5.80;;;;;;;28.04;38.13;99211.06;10373160;28;20054;-80
2022/08/15 10:33:21;;;;;;;7.78;5.70;;;;;;;27.52;39.11;99215.41;10374382;28;20034;-79
2022/08/15 10:38:29;;;;;;;6.97;5.63;;;;;;;26.93;40.77;99226.41;10401010;28;20068;-80
2022/08/15 10:43:59;;;;;;;7.95;5.88;;;;;;;26.98;40.69;99231.97;10380200;28;20081;-79
2022/08/15 10:49:13;;;;;;;5.78;3.75;;;;;;;25.51;42.92;99254.50;10406970;28;20739;-80
2022/08/15 10:54:52;;;;;;;7.93;4.57;;;;;;;25.03;43.93;99264.09;10392068;28;20384;-80
2022/08/15 10:59:55;;;;;;;8.52;4.45;;;;;;;23.80;50.01;99288.03;10370128;28;20053;-78
2022/08/15 11:05:03;;;;;;;10.55;5.38;;;;;;;22.07;57.54;99310.31;10357857;28;20180;-76
2022/08/15 11:10:15;;;;;;;8.02;5.35;;;;;;;20.99;62.89;99329.59;10357913;28;20049;-76
2022/08/15 11:15:27;;;;;;;12.57;5.60;;;;;;;20.16;65.48;99349.38;10369238;28;20042;-76
2022/08/15 11:20:37;;;;;;;9.02;6.05;;;;;;;18.43;74.53;99305.47;10354879;28;20043;-75
2022/08/15 11:25:43;;;;;;;11.20;7.68;;;;;;;17.95;79.47;99313.50;10368740;28;20041;-74
2022/08/15 11:30:46;;;;;;;9.57;8.57;;;;;;;;;;10348698;28;20491;-74
2022/08/15 11:35:50;;;;;;;10.32;8.40;;;;;;;18.44;77.35;99269.06;10359927;28;20049;-74
2022/08/15 11:40:55;;;;;;;9.20;7.80;;;;;;;18.79;76.94;99252.69;10369641;28;20052;-74
2022/08/15 11:45:59;;;;;;;12.10;9.25;;;;;;;18.90;76.22;99259.44;10385949;28;20403;-75
2022/08/15 11:51:08;;;;;;;12.73;7.95;;;;;;;18.65;77.42;99259.09;10377502;28;20455;-75
2022/08/15 11:56:23;;;;;;;13.27;9.13;;;;;;;18.14;82.60;99253.03;10361332;28;20064;-76
2022/08/15 12:02:01;;;;;;;10.70;8.38;;;;;;;17.97;84.98;99268.00;10343616;28;20463;-77
2022/08/15 12:07:14;;;;;;;10.60;9.23;;;;;;;18.19;85.69;99268.75;10356253;28;20461;-77
2022/08/15 12:12:26;;;;;;;11.38;8.70;;;;;;;18.54;88.00;99261.38;10364348;28;20502;-76
2022/08/15 12:17:34;;;;;;;10.88;9.48;;;;;;;19.50;90.17;99273.06;10357368;28;20052;-76
2022/08/15 12:23:25;;;;;;;9.00;7.13;;;;;;;20.11;88.48;99286.47;10341169;28;20046;-76
2022/08/15 12:28:31;;;;;;;11.05;8.13;;;;;;;20.05;83.46;99315.41;10333590;28;20057;-76
2022/08/15 12:33:42;;;;;;;11.05;8.27;;;;;;;20.04;82.65;99321.06;10353997;28;20510;-77
2022/08/15 12:38:55;;;;;;;9.15;7.72;;;;;;;20.07;78.44;99323.34;10375435;28;20046;-77
2022/08/15 12:43:59;;;;;;;9.30;8.35;;;;;;;20.51;77.83;99330.84;10381231;28;20039;-77
2022/08/15 12:49:02;;;;;;;12.68;9.55;;;;;;;21.11;75.86;99321.56;10380292;28;20046;-77
2022/08/15 12:54:05;;;;;;;13.25;10.02;;;;;;;21.96;73.47;99307.50;10376270;28;20073;-77
2022/08/15 12:59:27;;;;;;;10.77;9.18;;;;;;;23.18;69.90;99302.94;10376801;28;20140;-76
2022/08/15 13:04:32;;;;;;;14.95;9.60;;;;;;;22.86;67.33;99277.66;10367779;28;20161;-77
2022/08/15 13:09:55;;;;;;;10.15;8.20;;;;;;;22.31;65.45;99277.69;10355339;28;20085;-76
2022/08/15 13:15:02;;;;;;;10.43;7.25;;;;;;;22.26;64.20;99272.88;10347295;28;20050;-76
2022/08/15 13:25:30;;;;;;;;;;;;;;;23.02;64.84;99247.97;10345492;28;20042;-76
2022/08/15 13:30:35;;;;;;;;;;;;;;;23.20;65.17;99243.28;10347613;28;19925;-76
2022/08/15 13:35:43;;;;;;;9.73;7.95;;;;;;;23.44;64.92;99235.91;10357953;28;19921;-77
2022/08/15 13:41:01;;;;;;;10.18;7.25;;;;;;;23.09;64.26;99213.94;10379685;28;20113;-76
2022/08/15 13:46:10;;;;;;;7.82;7.13;;;;;;;23.32;62.33;99218.63;10383499;28;20399;-76
2022/08/15 13:51:39;;;;;;;10.90;7.75;;;;;;;23.63;59.56;99230.31;10389583;28;20062;-76
2022/08/15 13:57:02;;;;;;;11.52;6.32;;;;;;;23.90;58.52;99205.22;10388925;28;20100;-78
2022/08/15 14:02:11;;;;;;;7.03;6.43;;;;;;;24.39;56.90;99206.53;10380876;28;20065;-78
2022/08/15 14:07:34;;;;;;;7.20;6.10;;;;;;;24.37;56.51;99218.81;10394768;28;20045;-77
2022/08/15 14:12:59;;;;;;;9.23;7.45;;;;;;;24.08;58.45;99225.09;10394738;28;20033;-79
2022/08/15 14:18:04;;;;;;;6.97;6.30;;;;;;;24.07;58.75;99223.41;10398537;28;20042;-78
2022/08/15 14:23:27;;;;;;;5.82;5.13;;;;;;;23.73;55.23;99230.56;10389492;28;20068;-78
2022/08/15 14:28:50;;;;;;;11.52;5.53;;;;;;;23.54;57.57;99226.28;10368827;28;20418;-79
2022/08/15 14:34:07;;;;;;;7.07;5.75;;;;;;;23.31;57.70;99222.47;10376265;28;20065;-78
2022/08/15 14:39:30;;;;;;;8.38;7.57;;;;;;;23.54;57.51;99229.84;10357733;28;20089;-78
2022/08/15 14:44:38;;;;;;;8.75;6.57;;;;;;;23.35;57.42;99236.50;10406896;28;20054;-78
2022/08/15 14:49:51;;;;;;;7.65;6.85;;;;;;;23.38;57.87;99239.59;10361425;28;20137;-78
2022/08/15 14:55:14;;;;;;;7.90;7.13;;;;;;;23.25;57.99;99238.97;10375287;28;20046;-79
2022/08/15 15:00:20;;;;;;;8.18;6.72;;;;;;;23.43;58.46;99249.88;10360971;28;20084;-78
2022/08/15 15:05:35;;;;;;;9.63;7.13;;;;;;;23.13;59.28;99249.91;10367310;28;20121;-78
2022/08/15 15:10:57;;;;;;;10.27;7.10;;;;;;;23.57;58.49;99254.03;10396343;28;20068;-77
2022/08/15 15:16:01;;;;;;;9.90;6.07;;;;;;;23.81;57.31;99257.66;10417423;23;20049;-77
2022/08/15 15:21:27;;;;;;;8.75;7.60;;;;;;;23.96;57.03;99259.09;10424319;28;20037;-77
2022/08/15 15:26:30;;;;;;;8.48;7.05;;;;;;;23.97;57.49;99255.25;10432473;28;20037;-77
2022/08/15 15:31:53;;;;;;;8.45;6.70;;;;;;;23.76;57.29;99257.53;10429134;28;20038;-77
2022/08/15 15:37:01;;;;;;;9.40;5.72;;;;;;;23.72;57.68;99256.28;10431312;28;20076;-78
2022/08/15 15:42:07;;;;;;;7.50;6.72;;;;;;;23.74;56.83;99267.03;10430720;28;20041;-78
2022/08/15 15:47:19;;;;;;;9.30;7.10;;;;;;;23.67;56.96;99261.69;10437153;28;20037;-78
2022/08/15 15:52:29;;;;;;;8.15;6.93;;;;;;;23.62;57.64;99262.38;10407382;28;20050;-78
2022/08/15 15:57:35;;;;;;;8.88;7.45;;;;;;;23.74;59.32;99262.38;10408617;28;20041;-78
2022/08/15 16:03:00;;;;;;;6.93;4.97;;;;;;;24.01;60.04;99261.94;10399448;28;20045;-79
2022/08/15 16:08:09;;;;;;;6.55;5.93;;;;;;;24.11;60.22;99264.91;10451377;28;20046;-78
2022/08/15 16:13:38;;;;;;;9.05;6.25;;;;;;;24.16;58.47;99265.00;10418278;28;20053;-78
2022/08/15 16:18:47;;;;;;;8.52;6.95;;;;;;;24.16;57.53;99265.00;10431097;28;20045;-79
2022/08/15 16:23:58;;;;;;;8.60;6.78;;;;;;;24.13;57.76;99270.16;10383066;28;20049;-79
2022/08/15 16:29:09;;;;;;;6.95;6.10;;;;;;;24.02;56.68;99285.53;10391606;28;20075;-79
2022/08/15 16:34:21;;;;;;;8.27;6.45;;;;;;;23.91;57.56;99283.63;10403874;28;20107;-79
2022/08/15 16:39:37;;;;;;;8.00;6.93;;;;;;;23.77;58.52;99278.38;10400192;28;20410;-79
2022/08/15 16:44:52;;;;;;;9.65;7.50;;;;;;;23.70;58.57;99279.56;10393018;28;20077;-79
2022/08/15 16:50:10;;;;;;;7.70;6.15;;;;;;;23.58;58.50;99279.53;10405146;28;20095;-78
2022/08/15 16:55:25;;;;;;;9.25;8.25;;;;;;;23.49;58.39;99283.69;10430975;28;20081;-78
2022/08/15 17:00:38;;;;;;;8.90;7.80;;;;;;;23.39;58.73;99287.00;10432256;28;20054;-78
2022/08/15 17:05:56;;;;;;;12.00;8.93;;;;;;;23.32;58.46;99291.78;10429088;28;20037;-76
2022/08/15 17:11:11;;;;;;;9.75;7.95;;;;;;;23.37;58.71;99289.16;10421553;28;20044;-77
2022/08/15 17:16:24;;;;;;;9.93;7.78;;;;;;;23.41;58.47;99290.34;10441003;28;20517;-77
2022/08/15 17:21:35;;;;;;;7.65;6.45;;;;;;;23.40;58.82;99280.47;10428286;28;20033;-77
2022/08/15 17:26:45;;;;;;;7.53;6.83;;;;;;;23.43;58.79;99280.00;10443417;28;20548;-77
2022/08/15 17:32:14;;;;;;;8.57;7.18;;;;;;;23.42;58.75;99279.16;10400313;28;20280;-78
2022/08/15 17:37:18;;;;;;;13.43;7.28;;;;;;;23.41;58.57;99287.63;10406013;28;20494;-78
2022/08/15 17:42:28;;;;;;;6.95;6.10;;;;;;;23.42;58.57;99292.88;10416515;28;20046;-78
2022/08/15 17:47:35;;;;;;;9.90;6.88;;;;;;;23.31;58.20;99295.56;10418934;28;20312;-78
2022/08/15 17:52:44;;;;;;;8.43;7.22;;;;;;;23.25;59.01;99296.50;10390998;28;20050;-78
2022/08/15 17:58:09;;;;;;;10.30;8.88;;;;;;;23.20;58.67;99299.94;10399780;28;20042;-78
2022/08/15 18:03:14;;;;;;;9.43;6.90;;;;;;;23.09;59.81;99304.31;10426794;28;20088;-77
2022/08/15 18:08:33;;;;;;;13.18;11.38;;;;;;;23.04;59.99;99317.84;10414050;28;20040;-77
2022/08/15 18:13:37;;;;;;;14.05;9.93;;;;;;;22.92;59.83;99311.47;10440757;28;20034;-77
2022/08/15 18:18:59;;;;;;;9.93;8.13;;;;;;;22.82;59.90;99319.41;10429107;28;20064;-77
2022/08/15 18:24:02;;;;;;;8.38;7.30;;;;;;;22.81;59.49;99321.31;10442401;28;20097;-77
2022/08/15 18:29:27;;;;;;;9.23;8.23;;;;;;;22.64;59.11;99326.56;10433137;28;20061;-77
2022/08/15 18:34:33;;;;;;;13.88;8.70;;;;;;;22.43;60.47;99329.72;10437356;28;20060;-77
2022/08/15 18:45:37;;;;;;;9.30;8.00;;;;;;;22.37;61.44;99339.69;10330557;28;20049;-77
2022/08/15 18:50:40;;;;;;;11.52;8.60;;;;;;;22.28;61.65;99346.53;10435746;28;20120;-77
2022/08/15 18:55:50;;;;;;;11.48;8.27;;;;;;;22.30;61.81;99344.41;10432318;28;20392;-77
2022/08/15 19:00:57;;;;;;;13.70;8.15;;;;;;;22.26;61.99;99354.13;10433303;28;20041;-77
2022/08/15 19:06:11;;;;;;;12.52;8.43;;;;;;;22.30;61.60;99347.97;10414822;28;20037;-76
2022/08/15 19:11:36;;;;;;;;;;;;;;;22.27;61.59;99358.50;10369918;28;20065;-76
2022/08/15 19:16:52;;;;;;;13.55;7.78;;;;;;;22.25;61.11;99361.50;10392719;28;19921;-77
2022/08/15 19:21:58;;;;;;;9.75;7.45;;;;;;;22.25;61.29;99366.13;10427968;28;20083;-77
2022/08/15 19:27:12;;;;;;;10.48;7.55;;;;;;;22.19;61.01;99376.06;10433285;28;20086;-77
2022/08/15 19:32:25;;;;;;;11.80;8.43;;;;;;;22.13;61.36;99374.22;10401076;28;20042;-77
2022/08/15 19:37:48;;;;;;;12.45;7.38;;;;;;;22.02;61.44;99381.28;10396237;28;20120;-77
2022/08/15 19:43:04;;;;;;;13.25;8.20;;;;;;;21.94;61.71;99372.50;10410054;28;20049;-77
2022/08/15 19:48:19;;;;;;;12.18;8.10;;;;;;;22.11;61.25;99373.63;10399680;28;20115;-77
2022/08/15 19:53:29;;;;;;;11.45;7.95;;;;;;;22.06;61.43;99377.03;10423616;28;20126;-82
2022/08/15 19:58:58;;;;;;;9.27;8.20;;;;;;;21.97;61.74;99381.09;10411063;28;20490;-81
2022/08/15 20:04:18;;;;;;;10.07;7.80;;;;;;;21.98;61.63;99384.66;10387964;28;20406;-80
2022/08/15 20:09:58;;;;;;;12.73;8.07;;;;;;;22.00;61.67;99386.13;10416197;28;20491;-79
2022/08/15 20:15:18;;;;;;;11.60;7.57;;;;;;;21.99;61.60;99389.91;10459777;28;20037;-80
2022/08/15 20:20:29;;;;;;;12.15;8.20;;;;;;;21.88;62.42;99399.66;10447928;28;20060;-81
2022/08/15 20:25:37;;;;;;;11.98;8.27;;;;;;;21.77;62.51;99394.06;10489232;28;20063;-79
2022/08/15 20:30:50;;;;;;;10.73;8.10;;;;;;;21.73;63.00;99398.28;10444251;28;20049;-80
2022/08/15 20:36:00;;;;;;;12.02;7.72;;;;;;;21.70;63.26;99412.41;10454198;28;20073;-81
2022/08/15 20:41:06;;;;;;;13.43;8.10;;;;;;;21.71;62.85;99416.81;10446121;28;20064;-81
2022/08/15 20:46:24;;;;;;;12.88;8.52;;;;;;;21.75;63.00;99407.97;10437350;28;20117;-80
2022/08/15 20:51:36;;;;;;;20.00;8.52;;;;;;;21.75;62.72;99407.97;10436721;28;20038;-82
2022/08/15 20:57:01;;;;;;;10.52;8.30;;;;;;;21.70;63.16;99413.25;10415846;28;20479;-80
2022/08/15 21:02:31;;;;;;;12.95;9.45;;;;;;;21.72;62.96;99419.31;10416762;28;20071;-81
2022/08/15 21:08:12;;;;;;;12.15;8.93;;;;;;;21.64;63.12;99422.31;10434838;28;20101;-81
2022/08/15 21:13:39;;;;;;;12.65;9.30;;;;;;;21.65;63.31;99426.72;10448619;28;20063;-79
2022/08/15 21:18:51;;;;;;;11.73;8.75;;;;;;;21.60;62.93;99437.47;10432701;28;20033;-81
2022/08/15 21:24:14;;;;;;;12.25;8.57;;;;;;;21.62;63.17;99425.25;10415368;28;20049;-81
2022/08/15 21:29:32;;;;;;;14.98;8.95;;;;;;;21.57;63.45;99432.44;10434974;28;20549;-79
2022/08/15 21:34:38;;;;;;;15.30;8.88;;;;;;;21.58;63.48;99432.22;10460417;28;20044;-80
2022/08/15 21:39:53;;;;;;;13.27;9.15;;;;;;;21.59;63.44;99442.09;10416705;28;20047;-80
2022/08/15 21:45:18;;;;;;;16.33;9.73;;;;;;;21.68;63.86;99440.78;10415632;28;20127;-79
2022/08/15 21:50:28;;;;;;;13.25;11.20;;;;;;;21.71;63.54;99449.59;10423162;28;20056;-81
2022/08/15 21:55:46;;;;;;;11.48;9.65;;;;;;;21.67;63.63;99455.50;10416243;28;20045;-80
2022/08/15 22:00:54;;;;;;;12.63;9.98;;;;;;;21.56;63.85;99458.09;10410620;28;20042;-80
2022/08/15 22:06:05;;;;;;;18.40;9.98;;;;;;;21.38;64.32;99462.38;10404120;28;20038;-79
2022/08/15 22:11:13;;;;;;;16.67;10.30;;;;;;;21.20;64.55;99474.03;10418251;28;20103;-80
2022/08/15 22:16:18;;;;;;;21.52;10.35;;;;;;;21.15;64.90;99470.28;10402080;28;20076;-80
2022/08/15 22:21:42;;;;;;;15.93;10.63;;;;;;;21.08;64.92;99478.47;10399042;28;20038;-79
2022/08/15 22:26:46;;;;;;;16.92;10.93;;;;;;;21.02;65.01;99474.66;10399207;28;20037;-79
2022/08/15 22:31:57;;;;;;;15.65;10.40;;;;;;;20.94;65.14;99472.19;10394894;28;20049;-80
2022/08/15 22:37:20;;;;;;;13.43;9.85;;;;;;;20.78;65.67;99480.81;10370880;28;20050;-80
2022/08/15 22:42:40;;;;;;;13.02;10.95;;;;;;;20.67;65.57;99478.75;10390559;28;20052;-79
2022/08/15 22:47:47;;;;;;;17.75;11.10;;;;;;;20.67;65.31;99484.19;10399995;28;20399;-79
2022/08/15 22:52:57;;;;;;;14.10;10.65;;;;;;;20.67;64.83;99476.00;10402668;28;20050;-80
2022/08/15 22:58:03;;;;;;;17.48;10.25;;;;;;;20.59;65.26;99478.97;10406223;28;20117;-80
2022/08/15 23:03:16;;;;;;;16.27;9.95;;;;;;;20.55;65.43;99473.09;10399720;28;20033;-80
2022/08/15 23:08:29;;;;;;;18.95;10.82;;;;;;;20.52;65.39;99477.09;10399077;28;20057;-80
2022/08/15 23:13:36;;;;;;;14.20;10.30;;;;;;;20.48;65.42;99480.44;10405982;28;20053;-79
2022/08/15 23:19:10;;;;;;;17.20;9.85;;;;;;;20.49;65.20;99491.16;10414948;28;20053;-79
2022/08/15 23:24:15;;;;;;;16.45;11.82;;;;;;;20.42;65.82;99481.28;10406755;28;20383;-80
2022/08/15 23:29:40;;;;;;;13.73;11.13;;;;;;;20.30;66.64;99487.34;10391422;28;20099;-79
2022/08/15 23:34:45;;;;;;;16.20;11.90;;;;;;;20.29;66.48;99487.53;10402378;28;20083;-80
2022/08/15 23:39:54;;;;;;;16.90;10.80;;;;;;;20.27;66.53;99487.78;10408363;28;20050;-80
2022/08/15 23:44:58;;;;;;;12.73;10.02;;;;;;;20.25;67.11;99489.03;10408087;28;20041;-78
2022/08/15 23:50:02;;;;;;;16.98;11.60;;;;;;;20.10;67.20;99487.34;10403716;28;20038;-80
2022/08/15 23:55:09;;;;;;;16.55;11.60;;;;;;;19.97;67.52;99486.50;10407246;28;20052;-79
